createdAt,value
2022-09-17T00:00:10.585Z,2.23
2022-09-17T00:02:44.847Z,2.20
2022-09-17T00:05:16.686Z,1.87
2022-09-17T00:07:48.903Z,1.77
2022-09-17T00:10:21.264Z,1.50
2022-09-17T00:12:52.958Z,1.97
2022-09-17T00:15:24.654Z,2.33
2022-09-17T00:17:58.050Z,1.60
2022-09-17T00:20:29.886Z,1.73
2022-09-17T00:23:02.632Z,1.97
2022-09-17T00:25:34.772Z,2.20
2022-09-17T00:28:06.503Z,2.60
2022-09-17T00:30:42.796Z,2.33
2022-09-17T00:33:16.689Z,2.20
2022-09-17T00:36:01.586Z,2.00
2022-09-17T00:38:33.807Z,1.80
2022-09-17T00:41:07.047Z,1.90
2022-09-17T00:43:56.482Z,2.10
2022-09-17T00:46:43.506Z,1.90
2022-09-17T00:49:23.646Z,1.70
2022-09-17T00:52:02.193Z,2.50
2022-09-17T00:54:36.510Z,2.13
2022-09-17T00:57:08.863Z,2.00
2022-09-17T00:59:40.999Z,2.30
2022-09-17T01:02:13.040Z,1.80
2022-09-17T01:04:44.923Z,1.83
2022-09-17T01:07:46.948Z,2.13
2022-09-17T01:10:21.722Z,2.03
2022-09-17T01:12:59.548Z,1.90
2022-09-17T01:15:47.819Z,2.33
2022-09-17T01:18:40.171Z,2.80
2022-09-17T01:21:51.232Z,2.87
2022-09-17T01:24:58.575Z,2.87
2022-09-17T01:27:45.867Z,2.20
2022-09-17T01:30:55.763Z,2.80
2022-09-17T01:33:28.706Z,2.63
2022-09-17T01:36:33.678Z,2.67
2022-09-17T01:39:28.066Z,2.53
2022-09-17T01:42:02.649Z,2.60
2022-09-17T01:44:41.566Z,3.07
2022-09-17T01:47:20.739Z,2.60
2022-09-17T01:49:57.394Z,3.03
2022-09-17T01:52:34.107Z,3.40
2022-09-17T01:55:11.371Z,3.40
2022-09-17T01:58:14.921Z,3.37
2022-09-17T02:00:53.212Z,3.17
2022-09-17T02:03:35.403Z,3.07
2022-09-17T02:06:13.047Z,3.20
2022-09-17T02:08:53.407Z,3.00
2022-09-17T02:11:25.212Z,3.03
2022-09-17T02:14:03.226Z,3.37
2022-09-17T02:16:39.758Z,3.53
2022-09-17T02:19:16.739Z,2.90
2022-09-17T02:22:36.085Z,2.80
2022-09-17T02:25:18.170Z,3.60
2022-09-17T02:28:03.618Z,3.10
2022-09-17T02:30:35.767Z,2.90
2022-09-17T02:33:11.608Z,3.00
2022-09-17T02:35:44.170Z,3.20
2022-09-17T02:38:25.917Z,2.43
2022-09-17T02:41:06.535Z,3.30
2022-09-17T02:43:59.341Z,2.87
2022-09-17T02:46:52.362Z,3.23
2022-09-17T02:49:45.765Z,3.10
2022-09-17T02:52:52.759Z,2.77
2022-09-17T02:55:36.843Z,2.90
2022-09-17T02:58:22.477Z,3.00
2022-09-17T03:00:56.692Z,3.50
2022-09-17T03:03:37.872Z,3.33
2022-09-17T03:06:09.739Z,3.40
2022-09-17T03:08:42.822Z,2.37
2022-09-17T03:11:15.094Z,2.70
2022-09-17T03:13:46.894Z,2.63
2022-09-17T03:16:18.810Z,2.33
2022-09-17T03:18:50.636Z,2.73
2022-09-17T03:21:22.377Z,2.37
2022-09-17T03:23:54.035Z,2.67
2022-09-17T03:26:26.151Z,2.67
2022-09-17T03:28:58.676Z,2.73
2022-09-17T03:31:30.463Z,3.20
2022-09-17T03:34:02.142Z,3.10
2022-09-17T03:36:34.150Z,3.27
2022-09-17T03:39:06.222Z,4.70
2022-09-17T03:41:38.374Z,3.50
2022-09-17T03:44:10.537Z,3.20
2022-09-17T03:46:43.134Z,2.87
2022-09-17T03:49:14.871Z,2.63
2022-09-17T03:51:46.619Z,3.13
2022-09-17T03:54:18.427Z,2.57
2022-09-17T03:56:50.098Z,2.63
2022-09-17T03:59:22.771Z,2.87
2022-09-17T04:01:54.541Z,3.50
2022-09-17T04:04:26.488Z,2.90
2022-09-17T04:06:58.382Z,2.90
2022-09-17T04:09:30.133Z,3.20
2022-09-17T04:12:02.103Z,3.10
2022-09-17T04:14:34.207Z,2.73
2022-09-17T04:17:05.996Z,3.03
2022-09-17T04:19:37.978Z,3.00
2022-09-17T04:22:09.719Z,2.70
2022-09-17T04:24:41.604Z,2.90
2022-09-17T04:27:13.291Z,3.37
2022-09-17T04:29:44.959Z,3.60
2022-09-17T04:32:16.731Z,2.77
2022-09-17T04:34:48.523Z,3.00
2022-09-17T04:37:20.287Z,3.13
2022-09-17T04:39:52.692Z,2.63
2022-09-17T04:42:24.686Z,3.40
2022-09-17T04:44:56.460Z,2.80
2022-09-17T04:47:28.332Z,3.10
2022-09-17T04:50:00.048Z,2.60
2022-09-17T04:52:31.775Z,3.60
2022-09-17T04:55:04.430Z,3.20
2022-09-17T04:57:36.151Z,3.50
2022-09-17T05:00:10.218Z,3.17
2022-09-17T05:02:45.219Z,2.80
2022-09-17T05:05:18.296Z,2.77
2022-09-17T05:07:50.096Z,2.70
2022-09-17T05:10:23.907Z,3.50
2022-09-17T05:12:56.583Z,2.97
2022-09-17T05:15:28.298Z,3.20
2022-09-17T05:18:00.062Z,3.40
2022-09-17T05:20:31.715Z,2.93
2022-09-17T05:23:03.393Z,3.97
2022-09-17T05:25:35.141Z,2.70
2022-09-17T05:28:06.952Z,3.00
2022-09-17T05:30:38.580Z,3.57
2022-09-17T05:33:10.435Z,3.40
2022-09-17T05:35:44.572Z,3.30
2022-09-17T05:38:18.442Z,4.93
2022-09-17T05:40:50.524Z,4.43
2022-09-17T05:43:22.251Z,3.50
2022-09-17T05:45:54.598Z,2.70
2022-09-17T05:48:26.315Z,3.87
2022-09-17T05:50:58.067Z,3.50
2022-09-17T05:53:29.797Z,4.23
2022-09-17T05:56:01.893Z,3.40
2022-09-17T05:58:34.498Z,4.20
2022-09-17T06:01:06.250Z,4.67
2022-09-17T06:03:38.128Z,4.20
2022-09-17T06:06:10.868Z,3.70
2022-09-17T06:08:42.692Z,4.20
2022-09-17T06:11:14.438Z,4.43
2022-09-17T06:13:46.149Z,4.00
2022-09-17T06:16:17.855Z,3.97
2022-09-17T06:18:53.099Z,3.13
2022-09-17T06:21:24.857Z,4.20
2022-09-17T06:23:56.572Z,4.97
2022-09-17T06:26:28.418Z,4.00
2022-09-17T06:29:01.010Z,3.90
2022-09-17T06:31:33.381Z,3.73
2022-09-17T06:34:05.599Z,3.53
2022-09-17T06:36:37.668Z,3.10
2022-09-17T06:39:11.552Z,3.97
2022-09-17T06:41:43.403Z,3.60
2022-09-17T06:44:15.110Z,3.53
2022-09-17T06:46:50.974Z,3.43
2022-09-17T06:49:22.834Z,3.50
2022-09-17T06:51:54.575Z,4.07
2022-09-17T06:54:26.270Z,3.73
2022-09-17T06:56:57.987Z,3.63
2022-09-17T06:59:29.678Z,4.27
2022-09-17T07:02:01.589Z,3.77
2022-09-17T07:04:33.275Z,3.10
2022-09-17T07:07:05.457Z,4.20
2022-09-17T07:09:37.117Z,4.10
2022-09-17T07:12:09.341Z,3.63
2022-09-17T07:14:41.141Z,3.83
2022-09-17T07:17:12.931Z,3.57
2022-09-17T07:19:44.623Z,2.97
2022-09-17T07:22:16.492Z,3.90
2022-09-17T07:24:48.170Z,4.33
2022-09-17T07:27:19.815Z,3.87
2022-09-17T07:29:51.571Z,3.30
2022-09-17T07:32:23.859Z,3.70
2022-09-17T07:34:55.543Z,3.47
2022-09-17T07:37:28.463Z,4.20
2022-09-17T07:40:00.207Z,3.40
2022-09-17T07:42:32.514Z,3.70
2022-09-17T07:45:04.466Z,3.10
2022-09-17T07:47:40.718Z,3.90
2022-09-17T07:50:12.473Z,2.97
2022-09-17T07:52:47.922Z,3.27
2022-09-17T07:55:20.123Z,2.47
2022-09-17T07:57:52.674Z,3.47
2022-09-17T08:00:24.330Z,3.40
2022-09-17T08:02:56.742Z,3.57
2022-09-17T08:05:28.524Z,3.07
2022-09-17T08:08:00.195Z,3.93
2022-09-17T08:10:31.922Z,4.03
2022-09-17T08:13:03.639Z,3.90
2022-09-17T08:15:35.867Z,3.43
2022-09-17T08:18:07.539Z,3.50
2022-09-17T08:20:39.280Z,3.33
2022-09-17T08:23:11.017Z,3.43
2022-09-17T08:25:42.694Z,3.40
2022-09-17T08:28:14.347Z,3.90
2022-09-17T08:30:48.184Z,3.77
2022-09-17T08:33:20.622Z,3.57
2022-09-17T08:35:53.725Z,4.27
2022-09-17T08:38:32.521Z,3.70
2022-09-17T08:41:10.435Z,4.20
2022-09-17T08:44:01.191Z,3.77
2022-09-17T08:46:40.720Z,3.27
2022-09-17T08:49:30.380Z,3.67
2022-09-17T08:52:08.090Z,2.90
2022-09-17T08:55:13.257Z,3.33
2022-09-17T08:58:01.781Z,3.37
2022-09-17T09:00:55.430Z,3.17
2022-09-17T09:04:06.256Z,3.23
2022-09-17T09:06:44.383Z,3.87
2022-09-17T09:09:19.718Z,3.80
2022-09-17T09:12:00.740Z,3.43
2022-09-17T09:14:40.210Z,3.43
2022-09-17T09:17:11.883Z,2.87
2022-09-17T09:19:46.019Z,3.10
2022-09-17T09:22:43.942Z,3.73
2022-09-17T09:25:24.177Z,3.40
2022-09-17T09:28:26.136Z,3.27
2022-09-17T09:31:22.920Z,3.77
2022-09-17T09:33:56.455Z,4.13
2022-09-17T09:36:29.967Z,5.03
2022-09-17T09:39:11.275Z,4.00
2022-09-17T09:41:49.445Z,3.90
2022-09-17T09:44:23.991Z,4.07
2022-09-17T09:47:20.762Z,3.93
2022-09-17T09:50:20.213Z,3.77
2022-09-17T09:53:09.907Z,4.00
2022-09-17T09:56:17.804Z,3.80
2022-09-17T09:58:49.470Z,3.73
2022-09-17T10:01:21.242Z,3.63
2022-09-17T10:03:54.097Z,4.30
2022-09-17T10:06:30.489Z,3.70
2022-09-17T10:09:02.131Z,4.10
2022-09-17T10:11:34.103Z,4.00
2022-09-17T10:14:25.553Z,3.80
2022-09-17T10:17:20.999Z,3.40
2022-09-17T10:20:02.027Z,3.63
2022-09-17T10:22:39.676Z,3.00
2022-09-17T10:25:44.077Z,3.33
2022-09-17T10:28:40.265Z,3.57
2022-09-17T10:31:12.227Z,3.10
2022-09-17T10:33:53.258Z,2.70
2022-09-17T10:36:41.251Z,3.43
2022-09-17T10:39:26.420Z,3.27
2022-09-17T10:42:02.798Z,3.00
2022-09-17T10:44:36.616Z,4.10
2022-09-17T10:47:26.418Z,3.00
2022-09-17T10:50:01.497Z,2.40
2022-09-17T10:52:36.937Z,2.03
2022-09-17T10:55:37.484Z,2.30
2022-09-17T10:58:19.691Z,2.40
2022-09-17T11:00:52.316Z,2.67
2022-09-17T11:03:45.659Z,2.57
2022-09-17T11:06:41.739Z,2.63
2022-09-17T11:09:22.199Z,2.43
2022-09-17T11:11:59.591Z,2.43
2022-09-17T11:14:57.761Z,2.77
2022-09-17T11:17:29.383Z,3.07
2022-09-17T11:20:08.172Z,2.93
2022-09-17T11:22:54.989Z,3.30
2022-09-17T11:25:44.154Z,2.27
2022-09-17T11:28:15.784Z,1.90
2022-09-17T11:31:05.517Z,2.10
2022-09-17T11:33:49.512Z,2.40
2022-09-17T11:36:39.126Z,2.10
2022-09-17T11:39:24.496Z,1.43
2022-09-17T11:42:02.015Z,1.70
2022-09-17T11:44:40.919Z,1.87
2022-09-17T11:47:20.442Z,1.50
2022-09-17T11:50:09.839Z,2.07
2022-09-17T11:52:48.491Z,2.00
2022-09-17T11:55:42.083Z,1.53
2022-09-17T11:58:23.242Z,1.87
2022-09-17T12:01:04.284Z,1.70
2022-09-17T12:03:51.646Z,1.70
2022-09-17T12:06:34.198Z,2.00
2022-09-17T12:09:22.618Z,2.40
2022-09-17T12:12:37.900Z,2.30
2022-09-17T12:15:17.785Z,2.20
2022-09-17T12:18:43.051Z,1.90
2022-09-17T12:21:38.230Z,1.90
2022-09-17T12:24:21.579Z,1.87
2022-09-17T12:27:27.847Z,2.00
2022-09-17T12:30:05.782Z,1.70
2022-09-17T12:32:49.098Z,1.53
2022-09-17T12:36:05.498Z,1.70
2022-09-17T12:39:03.289Z,1.67
2022-09-17T12:42:02.421Z,2.83
2022-09-17T12:44:52.203Z,1.53
2022-09-17T12:47:58.867Z,1.80
2022-09-17T12:50:54.810Z,1.70
2022-09-17T12:53:42.523Z,2.00
2022-09-17T12:56:28.903Z,2.00
2022-09-17T12:59:05.325Z,1.80
2022-09-17T13:01:58.449Z,2.27
2022-09-17T13:05:11.874Z,2.13
2022-09-17T13:08:15.490Z,2.17
2022-09-17T13:11:11.980Z,2.83
2022-09-17T13:13:47.222Z,2.53
2022-09-17T13:16:38.027Z,2.90
2022-09-17T13:19:25.500Z,2.80
2022-09-17T13:22:07.338Z,2.60
2022-09-17T13:24:39.278Z,2.57
2022-09-17T13:27:23.222Z,3.20
2022-09-17T13:29:54.830Z,2.83
2022-09-17T13:32:32.819Z,2.90
2022-09-17T13:35:13.452Z,3.03
2022-09-17T13:38:05.590Z,2.23
2022-09-17T13:40:38.110Z,2.13
2022-09-17T13:43:12.853Z,2.63
2022-09-17T13:45:59.696Z,1.90
2022-09-17T13:48:34.642Z,2.10
2022-09-17T13:51:31.131Z,2.30
2022-09-17T13:54:08.692Z,2.10
2022-09-17T13:57:02.626Z,1.90
2022-09-17T13:59:36.648Z,2.30
2022-09-17T14:02:14.194Z,2.00
2022-09-17T14:04:48.516Z,2.00
2022-09-17T14:07:28.752Z,1.87
2022-09-17T14:10:16.550Z,2.37
2022-09-17T14:13:00.690Z,2.00
2022-09-17T14:15:41.428Z,2.27
2022-09-17T14:18:28.448Z,2.10
2022-09-17T14:21:28.344Z,1.93
2022-09-17T14:24:18.815Z,2.20
2022-09-17T14:27:02.168Z,2.20
2022-09-17T14:30:02.362Z,2.87
2022-09-17T14:33:01.522Z,2.10
2022-09-17T14:35:39.847Z,3.17
2022-09-17T14:38:21.790Z,3.07
2022-09-17T14:41:17.891Z,2.53
2022-09-17T14:43:49.585Z,2.30
2022-09-17T14:46:28.376Z,2.30
2022-09-17T14:49:20.113Z,1.97
2022-09-17T14:51:56.966Z,2.33
2022-09-17T14:54:36.344Z,2.80
2022-09-17T14:57:29.545Z,2.57
2022-09-17T15:00:01.538Z,2.47
2022-09-17T15:02:37.513Z,2.67
2022-09-17T15:05:21.975Z,2.17
2022-09-17T15:08:15.676Z,2.50
2022-09-17T15:11:07.095Z,2.47
2022-09-17T15:13:50.766Z,2.63
2022-09-17T15:16:30.393Z,2.10
2022-09-17T15:19:03.594Z,2.30
2022-09-17T15:21:41.683Z,2.65
2022-09-17T15:24:37.193Z,2.67
2022-09-17T15:27:23.779Z,2.57
2022-09-17T15:30:06.235Z,2.43
2022-09-17T15:32:39.371Z,2.23
2022-09-17T15:35:13.844Z,2.57
2022-09-17T15:37:55.904Z,2.70
2022-09-17T15:40:41.164Z,3.10
2022-09-17T15:43:24.106Z,2.60
2022-09-17T15:45:58.092Z,2.40
2022-09-17T15:48:34.227Z,2.37
2022-09-17T15:51:15.054Z,2.50
2022-09-17T15:54:27.661Z,2.73
2022-09-17T15:57:04.737Z,2.97
2022-09-17T15:59:36.445Z,2.53
2022-09-17T16:02:27.419Z,2.13
2022-09-17T16:05:25.417Z,3.10
2022-09-17T16:08:17.419Z,2.43
2022-09-17T16:10:49.267Z,2.60
2022-09-17T16:13:24.087Z,2.70
2022-09-17T16:15:58.906Z,2.77
2022-09-17T16:18:30.626Z,2.20
2022-09-17T16:21:02.311Z,2.50
2022-09-17T16:23:34.103Z,2.53
2022-09-17T16:26:07.363Z,2.30
2022-09-17T16:28:39.346Z,1.90
2022-09-17T16:31:14.137Z,2.50
2022-09-17T16:33:45.837Z,2.33
2022-09-17T16:36:18.170Z,1.90
2022-09-17T16:38:49.852Z,2.47
2022-09-17T16:41:21.522Z,2.10
2022-09-17T16:43:53.360Z,2.17
2022-09-17T16:46:25.014Z,2.30
2022-09-17T16:48:57.290Z,3.07
2022-09-17T16:51:28.979Z,1.97
2022-09-17T16:54:00.691Z,2.10
2022-09-17T16:56:32.395Z,2.23
2022-09-17T16:59:04.170Z,2.87
2022-09-17T17:01:35.899Z,1.93
2022-09-17T17:04:07.599Z,1.87
2022-09-17T17:06:39.246Z,2.10
2022-09-17T17:09:12.245Z,1.97
2022-09-17T17:11:43.903Z,2.30
2022-09-17T17:14:15.602Z,2.30
2022-09-17T17:16:47.260Z,1.90
2022-09-17T17:19:18.919Z,2.50
2022-09-17T17:21:51.301Z,2.43
2022-09-17T17:24:22.967Z,2.37
2022-09-17T17:26:54.611Z,2.20
2022-09-17T17:29:26.274Z,2.67
2022-09-17T17:31:57.958Z,2.47
2022-09-17T17:34:30.964Z,3.27
2022-09-17T17:37:02.751Z,2.93
2022-09-17T17:39:34.407Z,2.20
2022-09-17T17:42:06.295Z,3.23
2022-09-17T17:44:38.051Z,2.23
2022-09-17T17:47:09.788Z,2.40
2022-09-17T17:49:41.588Z,2.20
2022-09-17T17:52:13.243Z,2.77
2022-09-17T17:54:44.955Z,2.77
2022-09-17T17:57:16.823Z,2.40
2022-09-17T17:59:48.458Z,3.17
2022-09-17T18:02:20.177Z,3.00
2022-09-17T18:04:51.934Z,2.87
2022-09-17T18:07:23.655Z,2.07
2022-09-17T18:09:55.308Z,2.53
2022-09-17T18:12:27.370Z,3.50
2022-09-17T18:14:59.032Z,2.97
2022-09-17T18:17:31.494Z,2.53
2022-09-17T18:20:05.115Z,2.87
2022-09-17T18:22:37.037Z,2.60
2022-09-17T18:25:09.665Z,2.23
2022-09-17T18:27:42.145Z,2.23
2022-09-17T18:30:14.523Z,2.20
2022-09-17T18:32:48.233Z,2.63
2022-09-17T18:35:20.047Z,2.57
2022-09-17T18:37:51.706Z,3.80
2022-09-17T18:40:23.570Z,6.80
2022-09-17T18:42:55.246Z,5.10
2022-09-17T18:45:26.920Z,3.73
2022-09-17T18:47:58.628Z,2.60
2022-09-17T18:50:30.301Z,3.07
2022-09-17T18:53:02.764Z,7.57
2022-09-17T18:55:34.438Z,4.03
2022-09-17T18:58:06.712Z,4.20
2022-09-17T19:00:40.827Z,2.40
2022-09-17T19:03:12.574Z,2.50
2022-09-17T19:05:44.263Z,1.97
2022-09-17T19:08:20.651Z,2.13
2022-09-17T19:10:52.635Z,2.30
2022-09-17T19:13:24.978Z,2.43
2022-09-17T19:15:59.974Z,2.20
2022-09-17T19:18:33.183Z,2.67
2022-09-17T19:21:06.181Z,1.97
2022-09-17T19:23:42.495Z,2.10
2022-09-17T19:26:16.775Z,3.20
2022-09-17T19:28:51.509Z,2.07
2022-09-17T19:31:23.534Z,2.00
2022-09-17T19:33:56.283Z,2.20
2022-09-17T19:36:27.991Z,1.40
2022-09-17T19:38:59.651Z,1.80
2022-09-17T19:41:33.346Z,1.73
2022-09-17T19:44:05.093Z,2.00
2022-09-17T19:46:36.830Z,1.57
2022-09-17T19:49:09.883Z,1.70
2022-09-17T19:51:41.562Z,2.00
2022-09-17T19:54:13.240Z,1.50
2022-09-17T19:56:45.372Z,1.87
2022-09-17T19:59:17.030Z,1.90
2022-09-17T20:01:49.809Z,1.90
2022-09-17T20:04:21.653Z,2.50
2022-09-17T20:06:53.343Z,2.57
2022-09-17T20:09:25.052Z,4.00
2022-09-17T20:11:56.820Z,3.60
2022-09-17T20:14:28.583Z,2.10
2022-09-17T20:17:00.233Z,3.03
2022-09-17T20:19:31.906Z,2.73
2022-09-17T20:22:03.639Z,1.73
2022-09-17T20:24:35.351Z,2.03
2022-09-17T20:27:06.995Z,2.17
2022-09-17T20:29:38.691Z,2.00
2022-09-17T20:32:11.182Z,1.87
2022-09-17T20:34:42.875Z,1.50
2022-09-17T20:37:14.523Z,1.80
2022-09-17T20:39:46.170Z,1.97
2022-09-17T20:42:17.833Z,1.90
2022-09-17T20:44:49.480Z,1.73
2022-09-17T20:47:21.114Z,2.00
2022-09-17T20:49:55.407Z,2.33
2022-09-17T20:52:27.084Z,2.73
2022-09-17T20:54:58.728Z,1.70
2022-09-17T20:57:31.379Z,1.73
2022-09-17T21:00:17.272Z,2.17
2022-09-17T21:02:52.447Z,2.50
2022-09-17T21:05:24.098Z,1.70
2022-09-17T21:07:57.141Z,2.60
2022-09-17T21:10:28.787Z,1.67
2022-09-17T21:13:00.463Z,1.83
2022-09-17T21:15:32.123Z,1.90
2022-09-17T21:18:04.368Z,1.60
2022-09-17T21:20:37.618Z,2.07
2022-09-17T21:23:09.394Z,1.90
2022-09-17T21:25:41.062Z,2.07
2022-09-17T21:28:12.768Z,1.90
2022-09-17T21:30:46.758Z,1.80
2022-09-17T21:33:22.143Z,2.50
2022-09-17T21:35:53.811Z,2.53
2022-09-17T21:38:25.458Z,2.37
2022-09-17T21:40:58.447Z,2.10
2022-09-17T21:43:31.059Z,2.40
2022-09-17T21:46:08.815Z,2.30
2022-09-17T21:48:45.814Z,2.80
2022-09-17T21:51:30.496Z,3.03
2022-09-17T21:54:05.993Z,2.70
2022-09-17T21:56:38.367Z,2.50
2022-09-17T21:59:13.056Z,3.30
2022-09-17T22:01:47.953Z,2.80
2022-09-17T22:04:22.193Z,3.40
2022-09-17T22:06:54.839Z,2.90
2022-09-17T22:09:26.562Z,2.97
2022-09-17T22:11:59.650Z,2.93
2022-09-17T22:14:31.327Z,2.93
2022-09-17T22:17:03.058Z,3.20
2022-09-17T22:19:34.777Z,2.57
2022-09-17T22:22:06.507Z,2.75
2022-09-17T22:24:38.628Z,3.80
2022-09-17T22:27:10.363Z,2.87
2022-09-17T22:29:42.021Z,3.20
2022-09-17T22:32:13.791Z,3.40
2022-09-17T22:34:45.755Z,3.20
2022-09-17T22:37:17.414Z,3.20
2022-09-17T22:39:49.470Z,3.00
2022-09-17T22:42:21.138Z,3.77
2022-09-17T22:44:52.844Z,3.60
2022-09-17T22:47:24.511Z,3.20
2022-09-17T22:49:56.202Z,4.13
2022-09-17T22:52:27.871Z,3.90
2022-09-17T22:54:59.513Z,3.80
2022-09-17T22:57:31.183Z,3.17
2022-09-17T23:00:03.587Z,3.27
2022-09-17T23:02:35.982Z,3.53
2022-09-17T23:05:07.897Z,3.77
2022-09-17T23:07:39.591Z,3.73
2022-09-17T23:10:11.907Z,2.90
2022-09-17T23:12:43.623Z,2.83
2022-09-17T23:15:15.399Z,3.30
2022-09-17T23:17:47.068Z,3.80
2022-09-17T23:20:18.743Z,3.20
2022-09-17T23:22:50.435Z,3.60
2022-09-17T23:25:22.091Z,3.07
2022-09-17T23:27:57.150Z,2.90
2022-09-17T23:30:29.154Z,2.70
2022-09-17T23:33:00.867Z,2.90
2022-09-17T23:35:33.562Z,2.87
2022-09-17T23:38:05.814Z,3.30
2022-09-17T23:40:37.531Z,3.03
2022-09-17T23:43:09.462Z,2.70
2022-09-17T23:45:41.116Z,2.90
2022-09-17T23:48:12.795Z,3.53
2022-09-17T23:50:44.444Z,4.50
2022-09-17T23:53:16.111Z,3.57
2022-09-17T23:55:51.415Z,2.43
2022-09-17T23:58:23.160Z,2.83
